Time;durP1;ratioP1;P1;durP2;ratioP2;P2;SDS_P1;SDS_P2;PMS_P1;PMS_P2;Temp;Humidity;BMP_temperature;BMP_pressure;BME280_temperature;BME280_humidity;BME280_pressure;Samples;Min_cycle;Max_cycle;Signal;HPM_P1;HPM_P2
2022/03/06 00:00:21;;;;;;;16.67;13.47;;;;;;;5.06;47.83;101361.66;5027734;28;20498;-82
2022/03/06 00:02:48;;;;;;;14.87;12.63;;;;;;;4.97;47.06;101349.00;5027419;28;20422;-82
2022/03/06 00:05:15;;;;;;;17.53;13.57;;;;;;;5.14;47.40;101370.81;5027773;28;20088;-78
2022/03/06 00:07:41;;;;;;;17.33;13.83;;;;;;;4.59;47.25;101286.13;5027939;28;20222;-81
2022/03/06 00:10:08;;;;;;;17.47;12.87;;;;;;;4.17;47.64;101219.09;5052242;28;20140;-80
2022/03/06 00:12:39;;;;;;;19.67;13.77;;;;;;;3.55;46.82;101114.59;5039934;28;20091;-81
2022/03/06 00:15:07;;;;;;;20.80;13.80;;;;;;;3.60;47.32;101148.47;5033740;28;20049;-81
2022/03/06 00:17:34;;;;;;;17.33;13.13;;;;;;;4.58;47.58;101315.97;5018452;28;20061;-82
2022/03/06 00:20:02;;;;;;;16.33;13.20;;;;;;;4.64;48.26;101329.66;5012282;28;20053;-82
2022/03/06 00:22:29;;;;;;;14.87;12.90;;;;;;;4.54;48.19;101335.47;5011046;28;20085;-82
2022/03/06 00:24:57;;;;;;;19.50;12.37;;;;;;;4.54;48.32;101319.69;5011523;28;20125;-81
2022/03/06 00:27:24;;;;;;;16.93;12.47;;;;;;;4.52;48.11;101332.09;5028999;28;20089;-82
2022/03/06 00:29:51;;;;;;;18.67;13.57;;;;;;;4.64;47.83;101345.44;5011880;28;20063;-80
2022/03/06 00:32:17;;;;;;;19.63;13.67;;;;;;;4.58;48.35;101329.13;5011856;28;20091;-82
2022/03/06 00:34:46;;;;;;;17.73;12.80;;;;;;;4.43;48.04;101307.94;5012407;28;20049;-81
2022/03/06 00:37:12;;;;;;;17.00;13.40;;;;;;;4.51;48.35;101341.72;5029768;28;20088;-81
2022/03/06 00:39:39;;;;;;;17.50;13.03;;;;;;;4.56;48.65;101344.13;5012722;28;20088;-82
2022/03/06 00:42:11;;;;;;;16.57;12.57;;;;;;;4.58;48.93;101360.69;5012701;28;20069;-82
2022/03/06 00:44:38;;;;;;;18.85;12.85;;;;;;;4.50;49.01;101345.31;5030531;28;20060;-80
2022/03/06 00:47:05;;;;;;;20.03;13.17;;;;;;;4.30;49.04;101320.03;5015507;28;20685;-81
2022/03/06 00:49:32;;;;;;;19.50;13.40;;;;;;;4.12;48.87;101294.69;5030447;28;20081;-81
2022/03/06 00:51:59;;;;;;;17.47;13.07;;;;;;;3.81;49.13;101256.81;5010737;28;20052;-81
2022/03/06 00:54:26;;;;;;;19.57;14.30;;;;;;;3.98;49.16;101269.09;5022782;28;20103;-81
2022/03/06 00:56:52;;;;;;;16.70;12.93;;;;;;;2.92;48.67;101095.91;5010181;28;20057;-82
2022/03/06 00:59:19;;;;;;;17.53;14.50;;;;;;;4.55;49.45;101379.25;5010074;28;20565;-82
2022/03/06 01:01:46;;;;;;;18.00;13.47;;;;;;;4.28;49.29;101350.81;5027617;28;20458;-80
2022/03/06 01:04:13;;;;;;;22.90;14.03;;;;;;;4.32;49.17;101354.13;5010100;28;20059;-81
2022/03/06 01:06:39;;;;;;;18.47;13.40;;;;;;;4.52;49.62;101379.41;5009800;28;20053;-82
2022/03/06 01:09:06;;;;;;;15.30;12.50;;;;;;;4.45;49.45;101369.19;5009879;28;20134;-82
2022/03/06 01:11:36;;;;;;;17.23;13.10;;;;;;;4.01;49.19;101290.84;5027855;28;20054;-81
2022/03/06 01:14:03;;;;;;;17.83;13.37;;;;;;;4.24;49.35;101328.22;5027439;28;20049;-82
2022/03/06 01:16:30;;;;;;;20.17;13.00;;;;;;;4.46;49.02;101365.63;5026406;28;20470;-83
2022/03/06 01:18:57;;;;;;;17.37;13.13;;;;;;;4.55;48.84;101371.38;5025687;28;20547;-80
2022/03/06 01:21:23;;;;;;;16.17;12.70;;;;;;;4.46;48.86;101339.34;5027164;28;20041;-81
2022/03/06 01:23:50;;;;;;;15.63;12.60;;;;;;;4.54;49.31;101361.75;5026186;28;20067;-81
2022/03/06 01:26:18;;;;;;;17.73;13.60;;;;;;;3.89;48.98;101259.94;5027260;28;20103;-81
2022/03/06 01:28:45;;;;;;;14.57;12.33;;;;;;;4.32;49.50;101352.38;5025955;28;20135;-80
2022/03/06 01:31:11;;;;;;;17.47;13.73;;;;;;;4.07;49.54;101303.66;5009616;28;20053;-81
2022/03/06 01:33:38;;;;;;;18.00;13.13;;;;;;;3.40;49.86;101192.34;5027158;28;20049;-83
2022/03/06 01:36:07;;;;;;;16.47;13.63;;;;;;;4.36;49.47;101343.38;5010028;28;20392;-83
2022/03/06 01:38:34;;;;;;;17.17;13.10;;;;;;;4.42;49.18;101343.06;5026151;28;20050;-81
2022/03/06 01:41:02;;;;;;;19.03;12.90;;;;;;;4.41;49.62;101340.50;5026128;28;20167;-82
2022/03/06 01:43:28;;;;;;;18.67;13.73;;;;;;;3.70;49.84;101238.16;5028537;28;20042;-83
2022/03/06 01:45:57;;;;;;;18.87;13.50;;;;;;;4.14;49.80;101303.34;5027495;28;20140;-83
2022/03/06 01:48:24;;;;;;;20.10;14.60;;;;;;;3.50;50.01;101205.84;5027349;28;20061;-83
2022/03/06 01:50:51;;;;;;;17.47;13.20;;;;;;;4.17;50.08;101316.31;5009249;28;20061;-83
2022/03/06 01:53:20;;;;;;;22.97;14.10;;;;;;;3.27;50.03;101161.50;5025825;28;20057;-84
2022/03/06 01:55:47;;;;;;;27.40;15.20;;;;;;;3.60;49.67;101227.25;5026812;28;20050;-84
2022/03/06 01:58:14;;;;;;;17.33;13.17;;;;;;;3.94;49.83;101278.94;5025597;28;20514;-83
2022/03/06 02:00:48;;;;;;;18.67;14.17;;;;;;;4.18;50.09;101318.03;5025951;28;20136;-83
2022/03/06 02:03:19;;;;;;;17.27;13.43;;;;;;;4.36;49.92;101332.84;5009363;28;20556;-83
2022/03/06 02:05:46;;;;;;;17.40;12.93;;;;;;;4.13;50.68;101302.50;5025741;28;20144;-83
2022/03/06 02:08:13;;;;;;;17.97;13.80;;;;;;;4.35;50.23;101328.53;5027044;28;20049;-83
2022/03/06 02:10:40;;;;;;;18.30;13.50;;;;;;;4.37;49.99;101325.81;5009773;28;20049;-83
2022/03/06 02:13:07;;;;;;;19.53;15.00;;;;;;;4.11;50.92;101291.22;5025809;28;20057;-84
2022/03/06 02:15:37;;;;;;;17.57;13.80;;;;;;;3.54;50.37;101191.63;5038407;28;20051;-84
2022/03/06 02:18:04;;;;;;;25.93;15.07;;;;;;;3.97;50.87;101273.50;5029058;28;20084;-79
2022/03/06 02:20:31;;;;;;;19.00;13.03;;;;;;;4.28;50.68;101314.00;5029096;28;20052;-81
2022/03/06 02:22:58;;;;;;;18.03;14.17;;;;;;;3.53;50.49;101184.69;5045100;28;20147;-81
2022/03/06 02:25:34;;;;;;;21.73;13.23;;;;;;;4.33;50.31;101316.41;5029184;28;20047;-80
2022/03/06 02:28:06;;;;;;;18.83;13.83;;;;;;;4.29;50.75;101313.91;5029515;28;20049;-80
2022/03/06 02:30:36;;;;;;;18.50;13.27;;;;;;;4.35;50.65;101331.16;5042527;28;20049;-81
2022/03/06 02:33:06;;;;;;;17.67;13.97;;;;;;;3.48;50.60;101180.59;5030092;28;20165;-80
2022/03/06 02:35:34;;;;;;;18.87;13.77;;;;;;;3.94;50.53;101268.44;5046419;28;20409;-82
2022/03/06 02:38:00;;;;;;;17.57;13.77;;;;;;;3.84;51.03;101272.44;5048707;28;20045;-81
2022/03/06 02:40:29;;;;;;;17.17;13.83;;;;;;;4.14;50.72;101327.00;5031649;28;20107;-81
2022/03/06 02:42:56;;;;;;;18.77;14.33;;;;;;;2.22;51.13;101019.75;5031437;28;20482;-81
2022/03/06 02:45:26;;;;;;;18.43;14.80;;;;;;;3.93;51.04;101310.53;5047133;28;20148;-79
2022/03/06 02:47:54;;;;;;;18.87;13.50;;;;;;;3.45;51.35;101228.88;5028930;28;20483;-81
2022/03/06 02:50:24;;;;;;;18.47;14.07;;;;;;;3.76;51.31;101290.34;5046445;28;20482;-81
2022/03/06 02:52:52;;;;;;;19.37;13.60;;;;;;;3.85;51.53;101322.25;5028311;28;20098;-81
2022/03/06 02:55:19;;;;;;;17.93;13.80;;;;;;;4.04;51.46;101327.47;5028131;28;20414;-81
2022/03/06 02:57:46;;;;;;;18.17;14.10;;;;;;;2.95;51.20;101167.41;5027907;28;20110;-82
2022/03/06 03:00:20;;;;;;;19.53;13.53;;;;;;;3.93;51.44;101324.53;5028099;28;20045;-81
2022/03/06 03:02:48;;;;;;;18.87;14.03;;;;;;;3.63;51.24;101275.19;5027865;28;20136;-80
2022/03/06 03:05:16;;;;;;;18.47;13.80;;;;;;;3.90;51.59;101337.78;5045652;28;20118;-81
2022/03/06 03:07:45;;;;;;;21.00;14.10;;;;;;;3.88;51.50;101329.13;5027802;28;20557;-80
2022/03/06 03:10:14;;;;;;;20.77;13.23;;;;;;;3.82;51.55;101337.34;5028159;28;20467;-81
2022/03/06 03:12:42;;;;;;;18.50;13.37;;;;;;;3.60;52.05;101312.13;5045639;28;20134;-80
2022/03/06 03:15:10;;;;;;;19.87;14.67;;;;;;;3.87;51.65;101335.34;5044611;28;20550;-82
2022/03/06 03:17:37;;;;;;;19.40;15.07;;;;;;;3.81;51.35;101325.09;5028655;28;20059;-82
2022/03/06 03:20:05;;;;;;;20.77;14.23;;;;;;;3.69;52.41;101317.84;5028450;28;20083;-81
2022/03/06 03:22:31;;;;;;;19.03;14.03;;;;;;;3.35;51.96;101272.22;5028043;28;20087;-80
2022/03/06 03:24:58;;;;;;;21.60;15.03;;;;;;;3.55;51.88;101285.22;5028155;28;20126;-81
2022/03/06 03:27:25;;;;;;;19.87;14.27;;;;;;;3.81;51.35;101318.09;5027914;28;20080;-81
2022/03/06 03:29:51;;;;;;;18.47;13.90;;;;;;;3.36;51.78;101276.53;5027663;28;20059;-81
2022/03/06 03:32:18;;;;;;;20.93;14.00;;;;;;;3.56;52.30;101323.69;5027863;28;20140;-81
2022/03/06 03:34:44;;;;;;;18.77;14.47;;;;;;;3.14;52.40;101250.47;5027853;28;20140;-82
2022/03/06 03:37:11;;;;;;;24.00;14.77;;;;;;;2.80;52.84;101206.63;5044667;28;20095;-82
2022/03/06 03:39:38;;;;;;;19.13;14.10;;;;;;;3.69;52.35;101344.09;5045694;28;20049;-81
2022/03/06 03:42:04;;;;;;;17.03;13.47;;;;;;;3.58;52.33;101337.59;5028100;28;20236;-82
2022/03/06 03:44:31;;;;;;;20.67;15.03;;;;;;;3.24;52.39;101277.97;5047356;28;20509;-81
2022/03/06 03:46:58;;;;;;;19.27;14.13;;;;;;;3.67;52.11;101340.72;5048287;28;20105;-80
2022/03/06 03:49:25;;;;;;;16.17;13.57;;;;;;;3.62;52.26;101326.03;5031452;28;20149;-81
2022/03/06 03:51:52;;;;;;;19.30;14.13;;;;;;;3.47;52.33;101323.28;5031938;28;20133;-82
2022/03/06 03:54:18;;;;;;;19.00;14.57;;;;;;;3.64;52.17;101333.81;5053866;28;20140;-81
2022/03/06 03:56:45;;;;;;;23.30;15.93;;;;;;;3.71;51.91;101350.97;5059051;28;20056;-82
2022/03/06 03:59:11;;;;;;;20.17;14.63;;;;;;;3.61;51.98;101329.56;5035264;28;20136;-81
2022/03/06 04:01:38;;;;;;;23.00;14.53;;;;;;;3.28;52.01;101279.53;5031302;28;20055;-82
2022/03/06 04:04:05;;;;;;;22.77;15.53;;;;;;;3.49;51.88;101311.78;5031786;28;20052;-81
2022/03/06 04:06:32;;;;;;;22.47;15.33;;;;;;;3.69;51.99;101350.22;5031259;28;20133;-81
2022/03/06 04:08:58;;;;;;;21.47;14.60;;;;;;;3.57;52.43;101337.69;5031245;28;20281;-81
2022/03/06 04:11:25;;;;;;;18.57;15.07;;;;;;;3.35;52.24;101325.56;5031146;28;20473;-81
2022/03/06 04:13:52;;;;;;;18.63;13.87;;;;;;;3.48;52.39;101335.50;5047800;28;20133;-82
2022/03/06 04:16:18;;;;;;;21.70;15.33;;;;;;;3.22;52.54;101304.28;5048857;28;20124;-82
2022/03/06 04:18:45;;;;;;;21.07;14.17;;;;;;;3.36;52.44;101329.03;5031287;28;20057;-82
2022/03/06 04:21:12;;;;;;;18.93;14.30;;;;;;;3.49;52.45;101356.41;5031086;28;20087;-82
2022/03/06 04:23:38;;;;;;;19.63;14.73;;;;;;;3.59;52.25;101357.69;5047463;28;20049;-82
2022/03/06 04:26:05;;;;;;;21.90;14.57;;;;;;;3.55;52.53;101358.75;5031167;28;20049;-81
2022/03/06 04:28:31;;;;;;;21.30;15.53;;;;;;;2.42;52.56;101183.03;5034796;28;20055;-81
2022/03/06 04:30:58;;;;;;;23.27;15.00;;;;;;;3.36;52.63;101318.53;5039213;28;20077;-81
2022/03/06 04:33:25;;;;;;;18.47;14.20;;;;;;;3.54;52.45;101348.31;5035156;28;20572;-82
2022/03/06 04:35:52;;;;;;;17.03;14.37;;;;;;;3.48;52.42;101346.84;5030998;28;20077;-82
2022/03/06 04:38:18;;;;;;;23.03;15.00;;;;;;;3.23;52.46;101318.28;5031172;28;20639;-82
2022/03/06 04:40:46;;;;;;;21.17;14.87;;;;;;;3.41;52.75;101348.03;5031482;28;20566;-82
2022/03/06 04:43:13;;;;;;;21.23;15.13;;;;;;;2.93;53.04;101262.81;5031700;28;20076;-81
2022/03/06 04:45:40;;;;;;;20.53;14.97;;;;;;;3.09;52.73;101284.81;5032425;28;20060;-82
2022/03/06 04:48:06;;;;;;;23.63;16.93;;;;;;;3.55;52.64;101361.38;5032947;28;20056;-82
2022/03/06 04:50:33;;;;;;;20.97;14.90;;;;;;;3.57;52.31;101364.78;5033229;28;20126;-82
2022/03/06 04:53:00;;;;;;;20.77;14.30;;;;;;;3.38;52.49;101319.31;5050001;28;20064;-82
2022/03/06 04:55:26;;;;;;;19.23;14.63;;;;;;;3.65;52.37;101356.53;5032310;28;20049;-81
2022/03/06 04:57:53;;;;;;;22.57;16.07;;;;;;;3.67;52.17;101343.34;5034432;28;20564;-81
2022/03/06 05:00:20;;;;;;;22.53;15.10;;;;;;;3.45;51.83;101297.13;5048359;28;20060;-81
2022/03/06 05:02:46;;;;;;;21.23;14.93;;;;;;;3.56;51.89;101321.06;5047816;28;20114;-81
2022/03/06 05:05:13;;;;;;;22.77;16.03;;;;;;;3.45;52.19;101297.13;5047789;28;20241;-82
2022/03/06 05:07:40;;;;;;;18.83;15.67;;;;;;;3.71;51.91;101344.88;5030138;28;20052;-82
2022/03/06 05:10:09;;;;;;;19.73;15.40;;;;;;;3.66;51.77;101320.63;5029823;28;20053;-82
2022/03/06 05:12:38;;;;;;;20.03;14.53;;;;;;;3.79;51.59;101364.59;5030004;28;20049;-80
2022/03/06 05:15:07;;;;;;;20.40;14.77;;;;;;;3.72;51.96;101341.34;5021435;28;20045;-82
2022/03/06 05:17:36;;;;;;;22.77;15.17;;;;;;;3.78;52.22;101357.63;5010794;28;20045;-80
2022/03/06 05:20:05;;;;;;;20.77;14.47;;;;;;;3.11;51.56;101238.38;5010265;28;20423;-81
2022/03/06 05:22:31;;;;;;;22.77;15.67;;;;;;;3.60;51.41;101312.13;5010060;28;20056;-81
2022/03/06 05:24:58;;;;;;;18.53;14.97;;;;;;;3.69;51.14;101315.22;5027895;28;20081;-82
2022/03/06 05:27:26;;;;;;;21.30;14.37;;;;;;;4.03;50.90;101359.09;5010109;28;20069;-82
2022/03/06 05:29:53;;;;;;;22.40;16.73;;;;;;;3.96;50.95;101355.91;5009664;28;20055;-80
2022/03/06 05:32:20;;;;;;;19.87;15.23;;;;;;;3.71;51.33;101321.25;5027551;28;20137;-82
2022/03/06 05:34:46;;;;;;;20.57;15.43;;;;;;;3.83;51.17;101350.38;5009699;28;20402;-81
2022/03/06 05:37:13;;;;;;;17.37;14.93;;;;;;;3.85;50.99;101332.75;5027394;28;20136;-82
2022/03/06 05:39:40;;;;;;;19.53;14.90;;;;;;;3.02;50.90;101188.94;5009608;28;20136;-82
2022/03/06 05:42:06;;;;;;;20.70;15.03;;;;;;;4.10;50.95;101370.13;5009676;28;20076;-81
2022/03/06 05:44:33;;;;;;;27.07;15.50;;;;;;;3.84;50.72;101317.09;5009617;28;20144;-82
2022/03/06 05:47:00;;;;;;;25.27;15.33;;;;;;;3.98;50.27;101329.53;5009433;28;20057;-81
2022/03/06 05:49:27;;;;;;;18.83;15.20;;;;;;;4.22;50.53;101372.13;5026960;28;20049;-81
2022/03/06 05:51:53;;;;;;;20.90;15.77;;;;;;;4.10;51.25;101368.34;5009328;28;20049;-82
2022/03/06 05:54:20;;;;;;;21.67;14.97;;;;;;;3.93;50.69;101332.41;5027760;28;20140;-82
2022/03/06 05:56:47;;;;;;;19.80;14.90;;;;;;;4.06;50.83;101354.50;5009446;28;20136;-82
2022/03/06 05:59:13;;;;;;;22.67;15.00;;;;;;;4.18;50.52;101370.59;5009383;28;20140;-82
2022/03/06 06:01:40;;;;;;;18.77;14.73;;;;;;;4.29;50.67;101382.25;5026646;28;20136;-82
2022/03/06 06:04:07;;;;;;;21.93;14.60;;;;;;;4.09;50.18;101350.03;5009348;28;20529;-82
2022/03/06 06:06:33;;;;;;;20.67;14.40;;;;;;;4.14;50.62;101361.16;5008597;28;20136;-81
2022/03/06 06:09:00;;;;;;;28.77;14.37;;;;;;;4.17;50.35;101350.50;5008921;28;20077;-82
2022/03/06 06:11:27;;;;;;;20.17;14.47;;;;;;;4.23;50.10;101358.09;5026696;28;20578;-82
2022/03/06 06:13:54;;;;;;;22.17;14.80;;;;;;;4.29;50.51;101392.78;5009067;28;20041;-81
2022/03/06 06:16:20;;;;;;;24.87;15.37;;;;;;;4.06;50.27;101341.38;5045138;28;20059;-81
2022/03/06 06:18:47;;;;;;;19.90;14.73;;;;;;;2.93;49.96;101147.41;5045212;28;20056;-81
2022/03/06 06:21:16;;;;;;;20.53;15.10;;;;;;;4.41;50.59;101388.69;5046080;28;20048;-81
2022/03/06 06:23:43;;;;;;;18.27;14.57;;;;;;;4.31;49.91;101360.31;5013839;28;20128;-82
2022/03/06 06:26:09;;;;;;;17.87;13.87;;;;;;;4.53;50.16;101392.47;5007515;28;20507;-82
2022/03/06 06:28:36;;;;;;;22.00;14.87;;;;;;;4.49;49.80;101376.00;5006737;28;20045;-80
2022/03/06 06:31:06;;;;;;;20.60;15.23;;;;;;;4.35;49.89;101356.63;5007234;28;20552;-81
2022/03/06 06:33:32;;;;;;;23.57;15.53;;;;;;;4.30;49.71;101348.97;5006937;28;20459;-81
2022/03/06 06:36:00;;;;;;;19.30;15.07;;;;;;;3.94;49.03;101257.06;5007028;28;20045;-82
2022/03/06 06:38:27;;;;;;;21.17;14.47;;;;;;;4.61;49.59;101355.25;5024466;28;20081;-82
2022/03/06 06:40:54;;;;;;;20.67;15.73;;;;;;;4.85;49.37;101393.44;5006961;28;20594;-82
2022/03/06 06:43:21;;;;;;;18.87;14.97;;;;;;;4.57;49.08;101356.38;5006913;28;20068;-82
2022/03/06 06:45:48;;;;;;;18.90;13.40;;;;;;;4.85;49.55;101400.47;5007149;28;20041;-80
2022/03/06 06:48:15;;;;;;;18.07;14.80;;;;;;;4.85;49.12;101401.31;5007066;28;20045;-82
2022/03/06 06:50:41;;;;;;;19.67;13.80;;;;;;;4.52;49.46;101337.34;5010578;28;20096;-81
2022/03/06 06:53:08;;;;;;;19.43;14.43;;;;;;;4.88;49.08;101393.28;5050029;28;20061;-82
2022/03/06 06:55:35;;;;;;;18.13;13.93;;;;;;;4.92;49.02;101405.34;5039133;28;20052;-82
2022/03/06 06:58:03;;;;;;;19.83;13.40;;;;;;;5.02;48.83;101413.59;5056052;28;20088;-80
2022/03/06 07:00:30;;;;;;;22.57;13.83;;;;;;;4.93;49.14;101396.53;5050548;28;20296;-81
2022/03/06 07:02:57;;;;;;;18.57;14.43;;;;;;;4.59;48.58;101328.22;5030085;28;20044;-82
2022/03/06 07:05:24;;;;;;;18.53;14.50;;;;;;;4.73;48.49;101336.19;5030125;28;20199;-81
2022/03/06 07:07:51;;;;;;;22.47;15.27;;;;;;;5.07;48.39;101398.44;5028921;28;20057;-82
2022/03/06 07:10:18;;;;;;;17.17;14.40;;;;;;;5.23;48.01;101414.25;5045934;28;20055;-83
2022/03/06 07:12:51;;;;;;;21.50;14.90;;;;;;;5.04;48.30;101376.69;5028142;28;20075;-82
2022/03/06 07:15:17;;;;;;;16.73;14.07;;;;;;;5.31;48.33;101412.03;5018401;28;20053;-81
2022/03/06 07:17:44;;;;;;;18.10;13.90;;;;;;;5.34;47.66;101395.25;5028543;28;20055;-82
2022/03/06 07:20:12;;;;;;;21.60;15.23;;;;;;;5.40;47.57;101394.91;5013842;28;20488;-82
2022/03/06 07:22:39;;;;;;;19.37;14.37;;;;;;;5.46;47.50;101414.78;5027610;28;20049;-82
2022/03/06 07:25:06;;;;;;;21.57;14.27;;;;;;;5.18;46.96;101337.31;5011450;28;20099;-83
2022/03/06 07:27:33;;;;;;;19.03;14.53;;;;;;;5.64;46.61;101413.78;5027040;28;20427;-82
2022/03/06 07:29:59;;;;;;;18.23;14.43;;;;;;;4.99;47.21;101308.50;5003209;28;20049;-82
2022/03/06 07:32:26;;;;;;;19.83;14.33;;;;;;;5.50;46.88;101384.72;5012545;28;20053;-82
2022/03/06 07:34:53;;;;;;;19.27;14.87;;;;;;;5.68;46.50;101411.81;5012588;28;20045;-81
2022/03/06 07:37:19;;;;;;;19.17;14.93;;;;;;;5.46;46.30;101372.66;5030101;28;20075;-81
2022/03/06 07:39:46;;;;;;;21.60;14.77;;;;;;;5.64;46.16;101413.78;5011861;28;20053;-82
2022/03/06 07:42:13;;;;;;;17.83;14.57;;;;;;;5.36;46.68;101380.19;5012773;28;20045;-82
2022/03/06 07:44:40;;;;;;;20.77;15.30;;;;;;;5.51;47.33;101413.63;5012160;28;20045;-82
2022/03/06 07:47:07;;;;;;;20.90;14.93;;;;;;;5.65;46.59;101420.75;5012061;28;20046;-82
2022/03/06 07:49:34;;;;;;;17.73;14.03;;;;;;;5.47;46.12;101403.34;5035798;28;20037;-81
2022/03/06 07:52:03;;;;;;;18.90;14.40;;;;;;;5.66;46.07;101417.19;5029309;28;20052;-82
2022/03/06 07:54:30;;;;;;;19.43;14.57;;;;;;;5.54;46.32;101391.53;5011876;28;20132;-81
2022/03/06 07:56:57;;;;;;;23.20;15.47;;;;;;;5.60;46.28;101395.59;5011888;28;20049;-82
2022/03/06 07:59:25;;;;;;;19.73;15.23;;;;;;;5.70;46.05;101402.03;5028519;28;20076;-84
2022/03/06 08:01:55;;;;;;;20.77;14.43;;;;;;;4.49;46.35;101207.72;5011505;28;20561;-82
2022/03/06 08:04:22;;;;;;;19.87;15.47;;;;;;;5.62;46.35;101399.00;5029607;28;20133;-83
2022/03/06 08:06:49;;;;;;;20.03;14.93;;;;;;;5.65;45.95;101401.47;5028721;28;20128;-83
2022/03/06 08:09:16;;;;;;;23.17;15.27;;;;;;;5.62;46.60;101393.72;5012167;28;20111;-83
2022/03/06 08:11:43;;;;;;;20.33;14.67;;;;;;;4.92;45.82;101271.13;5031119;28;20053;-84
2022/03/06 08:14:12;;;;;;;18.83;14.60;;;;;;;5.20;46.33;101317.03;5016894;28;20483;-83
2022/03/06 08:16:39;;;;;;;17.50;14.60;;;;;;;5.75;46.50;101421.94;5015355;28;20053;-84
2022/03/06 08:19:06;;;;;;;18.97;14.57;;;;;;;4.98;46.86;101283.13;5032440;28;20045;-84
2022/03/06 08:21:33;;;;;;;20.93;15.43;;;;;;;5.58;46.97;101377.22;5029141;28;20201;-84
2022/03/06 08:23:59;;;;;;;17.40;14.43;;;;;;;5.77;46.54;101404.25;5010826;28;20479;-84
2022/03/06 08:26:27;;;;;;;21.37;16.37;;;;;;;5.48;46.54;101349.72;5010295;28;20076;-83
2022/03/06 08:28:53;;;;;;;20.10;15.77;;;;;;;5.71;46.79;101385.31;5010158;28;20081;-84
2022/03/06 08:31:20;;;;;;;19.90;14.60;;;;;;;5.85;46.56;101400.34;5029386;28;20128;-81
2022/03/06 08:33:47;;;;;;;17.42;15.52;;;;;;;5.88;47.12;101394.91;5028804;28;20049;-82
2022/03/06 08:36:15;;;;;;;22.00;16.10;;;;;;;4.43;46.73;101163.34;5011569;28;20057;-83
2022/03/06 08:38:42;;;;;;;22.03;16.33;;;;;;;4.58;46.96;101179.22;5011296;28;20050;-84
2022/03/06 08:41:08;;;;;;;25.10;14.87;;;;;;;4.97;47.07;101238.47;5011006;28;20550;-83
2022/03/06 08:43:35;;;;;;;18.07;15.17;;;;;;;5.68;47.38;101324.88;5010515;28;20073;-82
2022/03/06 08:46:03;;;;;;;19.97;15.53;;;;;;;6.01;47.24;101380.13;5028312;28;20466;-82
2022/03/06 08:48:31;;;;;;;18.70;15.73;;;;;;;6.03;46.75;101377.41;5029750;28;20048;-82
2022/03/06 08:50:58;;;;;;;20.60;15.07;;;;;;;5.65;47.01;101320.63;5028589;28;20099;-81
2022/03/06 08:53:25;;;;;;;21.07;13.97;;;;;;;6.10;47.41;101387.50;5011251;28;20045;-80
2022/03/06 08:55:55;;;;;;;18.50;14.60;;;;;;;6.15;47.46;101382.81;5011019;28;20089;-81
2022/03/06 08:58:21;;;;;;;19.20;15.23;;;;;;;6.42;47.79;101414.63;5011846;28;20443;-81
2022/03/06 09:00:48;;;;;;;20.10;14.70;;;;;;;6.47;47.17;101398.53;5029029;28;20080;-82
2022/03/06 09:03:15;;;;;;;21.70;15.07;;;;;;;6.66;47.15;101422.03;5011027;28;20574;-82
2022/03/06 09:05:42;;;;;;;18.17;14.90;;;;;;;6.23;47.46;101331.41;5011302;28;20792;-81
2022/03/06 09:08:10;;;;;;;18.80;15.45;;;;;;;5.88;47.15;101269.25;5011098;28;20057;-81
2022/03/06 09:10:38;;;;;;;24.00;14.33;;;;;;;6.75;46.95;101400.41;5030468;28;20046;-82
2022/03/06 09:13:05;;;;;;;17.50;14.13;;;;;;;6.84;47.49;101409.53;5029468;28;20105;-81
2022/03/06 09:15:32;;;;;;;15.32;13.18;;;;;;;6.99;47.41;101395.41;5028370;28;20053;-82
2022/03/06 09:17:59;;;;;;;20.90;16.08;;;;;;;7.03;46.97;101369.66;5029491;28;20135;-82
2022/03/06 09:20:26;;;;;;;21.15;14.13;;;;;;;7.25;47.22;101406.16;5048563;28;20132;-82
2022/03/06 09:22:54;;;;;;;18.65;13.75;;;;;;;7.36;47.03;101397.56;5030353;28;20052;-82
2022/03/06 09:25:21;;;;;;;16.70;13.77;;;;;;;7.45;46.75;101391.69;5046513;28;20049;-82
2022/03/06 09:27:47;;;;;;;16.77;14.00;;;;;;;7.59;46.40;101377.59;5029921;28;20137;-82
2022/03/06 09:30:14;;;;;;;17.92;13.32;;;;;;;7.74;46.44;101381.06;5029866;28;20045;-81
2022/03/06 09:32:41;;;;;;;17.85;13.38;;;;;;;7.79;46.36;101363.97;5029585;28;20049;-81
2022/03/06 09:35:09;;;;;;;20.27;13.38;;;;;;;7.76;45.80;101339.53;5046549;28;20134;-81
2022/03/06 09:37:42;;;;;;;17.98;14.68;;;;;;;8.23;45.61;101389.28;5030978;28;20478;-81
2022/03/06 09:40:09;;;;;;;18.60;14.40;;;;;;;7.80;44.96;101280.22;5029538;28;20053;-81
2022/03/06 09:42:36;;;;;;;20.25;15.27;;;;;;;8.59;45.19;101390.41;5029188;28;20438;-81
2022/03/06 09:45:05;;;;;;;16.55;14.70;;;;;;;8.81;44.83;101388.94;5047744;28;20083;-82
2022/03/06 09:47:32;;;;;;;17.80;13.15;;;;;;;8.93;44.94;101396.03;5029953;28;20395;-84
2022/03/06 09:50:00;;;;;;;17.10;13.40;;;;;;;8.94;43.35;101389.81;5029311;28;20498;-83
2022/03/06 09:52:27;;;;;;;14.38;11.95;;;;;;;8.59;43.25;101318.94;5029652;28;20255;-83
2022/03/06 09:54:55;;;;;;;13.50;11.75;;;;;;;8.60;42.26;101352.44;5047426;28;20084;-83
2022/03/06 09:57:22;;;;;;;14.85;12.20;;;;;;;8.72;43.16;101391.28;5046810;28;20052;-82
2022/03/06 09:59:49;;;;;;;13.77;11.60;;;;;;;8.72;42.88;101396.59;5029218;28;20045;-81
2022/03/06 10:02:16;;;;;;;14.23;12.07;;;;;;;8.77;42.78;101388.31;5031484;28;20478;-83
2022/03/06 10:04:46;;;;;;;14.32;11.48;;;;;;;8.68;42.53;101357.19;5055045;28;20049;-82
2022/03/06 10:07:16;;;;;;;15.50;12.48;;;;;;;8.95;41.68;101380.91;5038115;28;20462;-82
2022/03/06 10:09:51;;;;;;;14.13;11.25;;;;;;;8.88;41.50;101385.75;5061522;28;20064;-82
2022/03/06 10:12:24;;;;;;;14.65;10.85;;;;;;;8.50;41.66;101316.97;5040677;28;20049;-84
2022/03/06 10:14:55;;;;;;;14.43;11.38;;;;;;;8.23;41.67;101241.16;5037505;28;20392;-82
2022/03/06 10:17:24;;;;;;;12.15;10.43;;;;;;;9.11;40.98;101355.03;5022218;28;20077;-86
2022/03/06 10:19:57;;;;;;;13.33;9.90;;;;;;;9.27;40.08;101370.72;5025691;28;20084;-85
2022/03/06 10:22:27;;;;;;;13.88;10.73;;;;;;;8.33;40.17;101273.94;5025853;28;20064;-86
2022/03/06 10:24:59;;;;;;;12.18;10.60;;;;;;;8.55;41.06;101304.25;5027212;28;20052;-86
2022/03/06 10:27:54;;;;;;;12.10;9.60;;;;;;;9.06;40.70;101373.06;5027695;28;20443;-81
2022/03/06 10:30:35;;;;;;;14.52;11.32;;;;;;;9.35;41.32;101367.50;5020683;28;20051;-85
2022/03/06 10:33:03;;;;;;;14.50;11.88;;;;;;;8.54;40.59;101194.03;5010762;28;20053;-85
2022/03/06 10:35:35;;;;;;;14.70;10.50;;;;;;;9.69;39.92;101367.72;5025699;28;20049;-85
2022/03/06 10:38:22;;;;;;;15.10;11.13;;;;;;;9.60;39.85;101372.72;5025394;28;20434;-85
2022/03/06 10:40:50;;;;;;;12.05;10.68;;;;;;;8.14;40.08;101114.84;5025365;28;20124;-84
2022/03/06 10:43:18;;;;;;;12.57;9.95;;;;;;;9.60;39.10;101367.41;5025196;28;20141;-83
2022/03/06 10:45:47;;;;;;;11.43;10.27;;;;;;;9.38;39.59;101346.91;5022847;28;20499;-82
2022/03/06 10:48:14;;;;;;;12.18;9.80;;;;;;;7.95;39.03;101115.28;5026064;28;20053;-83
2022/03/06 10:50:45;;;;;;;14.50;11.48;;;;;;;8.64;39.03;101224.22;5026018;28;20140;-83
2022/03/06 10:53:24;;;;;;;11.93;10.35;;;;;;;9.36;38.87;101350.63;5024497;28;20259;-84
2022/03/06 10:55:52;;;;;;;12.10;9.52;;;;;;;9.44;39.51;101348.25;5026378;28;20138;-83
2022/03/06 10:58:20;;;;;;;13.00;10.10;;;;;;;9.37;38.64;101336.44;5024559;28;20130;-82
2022/03/06 11:00:48;;;;;;;14.20;10.00;;;;;;;8.66;39.40;101250.56;5024400;28;20144;-82
2022/03/06 11:03:15;;;;;;;13.77;9.85;;;;;;;8.51;39.45;101240.09;5038369;28;20152;-83
2022/03/06 11:05:46;;;;;;;11.55;9.85;;;;;;;9.18;38.92;101353.66;5025825;28;20454;-82
2022/03/06 11:08:14;;;;;;;11.30;9.23;;;;;;;8.33;38.82;101225.50;5029189;28;20549;-87
2022/03/06 11:10:45;;;;;;;10.88;9.55;;;;;;;8.07;38.85;101177.03;5029042;28;20140;-87
2022/03/06 11:13:17;;;;;;;11.65;8.93;;;;;;;8.70;37.66;101234.34;5028734;28;20497;-85
2022/03/06 11:15:43;;;;;;;11.90;9.75;;;;;;;9.13;37.54;101230.44;5059981;28;20415;-86
2022/03/06 11:18:28;;;;;;;11.82;9.68;;;;;;;10.24;36.60;101337.06;5048743;28;20044;-86